Time;durP1;ratioP1;P1;durP2;ratioP2;P2;SDS_P1;SDS_P2;PMS_P1;PMS_P2;Temp;Humidity;BMP_temperature;BMP_pressure;BME280_temperature;BME280_humidity;BME280_pressure;Samples;Min_cycle;Max_cycle;Signal;HPM_P1;HPM_P2
2023/08/19 00:00:14;;;;;;;12.57;7.60;;;;;;;25.72;44.98;99698.22;5090844;28;20116;-45
2023/08/19 00:02:44;;;;;;;5.78;2.90;;;;;;;25.54;45.33;99697.25;5090766;28;20555;-44
2023/08/19 00:05:10;;;;;;;5.00;3.13;;;;;;;25.58;45.23;99687.34;5090640;28;20062;-45
2023/08/19 00:07:36;;;;;;;3.50;3.05;;;;;;;25.66;44.90;99688.56;5090557;28;20032;-43
2023/08/19 00:10:03;;;;;;;4.60;3.10;;;;;;;25.53;45.21;99691.00;5090545;28;20183;-43
2023/08/19 00:12:29;;;;;;;6.00;2.97;;;;;;;25.62;45.07;99695.72;5090524;28;20032;-45
2023/08/19 00:14:55;;;;;;;5.50;3.20;;;;;;;25.57;45.05;99688.47;5090608;28;20077;-43
2023/08/19 00:17:22;;;;;;;4.53;3.15;;;;;;;25.26;45.80;99693.72;5090557;28;20092;-43
2023/08/19 00:19:47;;;;;;;4.45;3.45;;;;;;;25.41;45.35;99690.69;5089809;28;20145;-42
2023/08/19 00:22:13;;;;;;;4.68;3.40;;;;;;;25.54;44.96;99692.59;5082401;28;20036;-43
2023/08/19 00:24:38;;;;;;;4.07;3.05;;;;;;;25.39;45.68;99694.84;5090264;28;20028;-43
2023/08/19 00:27:04;;;;;;;8.38;3.17;;;;;;;25.24;45.89;99693.22;5090100;28;20032;-43
2023/08/19 00:29:29;;;;;;;3.75;2.90;;;;;;;25.33;45.75;99689.50;5088370;28;20034;-44
2023/08/19 00:31:55;;;;;;;6.97;3.28;;;;;;;25.30;45.66;99692.84;5078828;28;20157;-44
2023/08/19 00:34:21;;;;;;;4.22;3.08;;;;;;;25.19;46.09;99694.13;5070278;28;20035;-44
2023/08/19 00:36:46;;;;;;;6.03;3.30;;;;;;;25.15;46.10;99695.81;5070481;28;20417;-44
2023/08/19 00:39:12;;;;;;;4.72;3.30;;;;;;;25.01;46.31;99690.34;5069379;28;20052;-45
2023/08/19 00:41:38;;;;;;;4.90;3.20;;;;;;;25.12;46.03;99694.50;5068351;28;20276;-45
2023/08/19 00:44:04;;;;;;;4.50;3.25;;;;;;;25.06;46.17;99692.19;5068328;28;20037;-43
2023/08/19 00:46:31;;;;;;;4.00;2.90;;;;;;;25.17;46.30;99701.78;5068948;28;20447;-44
2023/08/19 00:48:58;;;;;;;5.18;3.20;;;;;;;25.44;45.38;99701.00;5068377;28;20048;-46
2023/08/19 00:51:24;;;;;;;3.80;3.10;;;;;;;25.55;45.10;99696.94;5068238;28;20031;-44
2023/08/19 00:53:50;;;;;;;4.45;3.38;;;;;;;25.16;46.19;99705.59;5068194;28;20025;-43
2023/08/19 00:56:16;;;;;;;5.15;3.20;;;;;;;25.08;46.24;99701.66;5068731;28;20115;-44
2023/08/19 00:58:41;;;;;;;5.80;3.30;;;;;;;25.24;46.01;99695.94;5069059;28;20024;-44
2023/08/19 01:01:08;;;;;;;6.03;3.50;;;;;;;25.05;46.31;99704.97;5068991;28;20028;-45
2023/08/19 01:03:34;;;;;;;5.43;3.05;;;;;;;24.95;46.55;99692.38;5069507;28;20063;-43
2023/08/19 01:06:26;;;;;;;4.50;3.22;;;;;;;25.15;46.13;99693.06;5069801;28;20016;-44
2023/08/19 01:09:10;;;;;;;5.72;3.10;;;;;;;25.15;46.24;99690.34;5070071;28;20092;-45
2023/08/19 01:12:03;;;;;;;4.07;3.30;;;;;;;25.30;45.50;99686.56;5073555;28;20115;-46
2023/08/19 01:14:54;;;;;;;4.93;3.20;;;;;;;25.30;45.41;99687.38;5073826;28;20133;-44
2023/08/19 01:17:25;;;;;;;4.43;3.00;;;;;;;25.28;45.41;99692.31;5069622;28;20043;-45
2023/08/19 01:19:53;;;;;;;4.65;2.90;;;;;;;25.09;45.70;99689.69;5073749;28;20021;-45
2023/08/19 01:22:28;;;;;;;4.15;3.10;;;;;;;25.00;46.04;99682.47;5073607;28;20444;-44
2023/08/19 01:24:54;;;;;;;4.47;3.08;;;;;;;25.06;45.78;99689.47;5073703;28;20103;-45
2023/08/19 01:27:24;;;;;;;7.38;3.50;;;;;;;25.09;45.69;99684.22;5073517;28;20170;-47
2023/08/19 01:29:50;;;;;;;7.10;3.20;;;;;;;24.80;46.54;99692.63;5073472;28;20031;-42
2023/08/19 01:32:16;;;;;;;3.55;2.88;;;;;;;25.02;46.00;99691.16;5073162;28;20493;-44
2023/08/19 01:34:42;;;;;;;4.00;2.92;;;;;;;24.95;46.22;99689.63;5073412;28;20028;-47
2023/08/19 01:37:11;;;;;;;5.32;3.40;;;;;;;24.87;46.43;99695.78;5073136;28;20025;-45
2023/08/19 01:39:39;;;;;;;5.57;3.00;;;;;;;24.88;46.39;99699.31;5073030;28;20052;-47
2023/08/19 01:42:06;;;;;;;4.53;3.25;;;;;;;24.88;46.53;99686.50;5073032;28;20033;-47
2023/08/19 01:44:33;;;;;;;5.60;3.20;;;;;;;24.82;46.67;99687.72;5073043;28;20042;-46
2023/08/19 01:47:12;;;;;;;3.58;3.10;;;;;;;24.88;46.68;99678.34;5073148;28;20190;-45
2023/08/19 01:49:37;;;;;;;4.25;3.10;;;;;;;24.95;46.45;99670.59;5073232;28;20025;-44
2023/08/19 01:52:03;;;;;;;6.38;3.30;;;;;;;24.93;46.50;99670.09;5073166;28;20043;-45
2023/08/19 01:54:28;;;;;;;6.97;3.53;;;;;;;25.62;44.96;99663.84;5072890;28;20400;-46
2023/08/19 01:56:54;;;;;;;6.40;3.67;;;;;;;25.55;45.42;99655.25;5073231;28;20127;-42
2023/08/19 01:59:19;;;;;;;4.82;3.33;;;;;;;25.81;44.61;99657.44;5073061;28;20074;-45
2023/08/19 02:01:44;;;;;;;7.38;3.67;;;;;;;26.01;44.55;99661.63;5072963;28;20462;-43
2023/08/19 02:04:10;;;;;;;6.10;3.30;;;;;;;25.68;45.38;99659.06;5072615;28;20024;-44
2023/08/19 02:06:35;;;;;;;6.13;3.47;;;;;;;25.46;45.87;99662.56;5072816;28;20025;-42
2023/08/19 02:09:01;;;;;;;7.57;3.80;;;;;;;25.71;45.88;99672.09;5072435;28;20043;-46
2023/08/19 02:11:27;;;;;;;7.13;3.80;;;;;;;25.52;46.49;99672.22;5072652;28;20055;-43
2023/08/19 02:13:53;;;;;;;5.03;3.67;;;;;;;25.44;46.89;99670.25;5072484;28;20404;-44
2023/08/19 02:16:18;;;;;;;6.38;3.90;;;;;;;25.68;46.13;99670.81;5072755;28;20036;-44
2023/08/19 02:18:44;;;;;;;4.63;3.80;;;;;;;24.87;48.39;99678.66;5072621;28;20024;-45
2023/08/19 02:21:09;;;;;;;7.50;3.80;;;;;;;24.81;48.87;99680.66;5071858;28;20108;-44
2023/08/19 02:23:34;;;;;;;4.28;3.60;;;;;;;25.19;47.98;99685.94;5072377;28;20031;-45
2023/08/19 02:26:00;;;;;;;6.07;3.63;;;;;;;25.38;47.36;99674.16;5072408;28;20028;-43
2023/08/19 02:28:25;;;;;;;5.63;3.53;;;;;;;25.50;47.05;99675.25;5072425;28;20029;-42
2023/08/19 02:30:51;;;;;;;5.55;3.55;;;;;;;25.38;47.38;99690.50;5072428;28;20025;-46
2023/08/19 02:33:16;;;;;;;6.18;3.92;;;;;;;25.36;47.52;99694.34;5072209;28;20025;-44
2023/08/19 02:35:41;;;;;;;9.63;3.90;;;;;;;25.40;47.36;99693.72;5072297;28;20044;-44
2023/08/19 02:38:07;;;;;;;4.70;3.80;;;;;;;25.42;47.27;99695.03;5071658;28;20133;-45
2023/08/19 02:40:32;;;;;;;4.60;3.70;;;;;;;25.52;47.04;99699.47;5072444;28;20020;-45
2023/08/19 02:42:58;;;;;;;6.43;4.15;;;;;;;25.51;47.11;99695.13;5072268;28;20424;-44
2023/08/19 02:45:24;;;;;;;6.35;3.97;;;;;;;25.41;47.29;99681.72;5072040;28;20039;-45
2023/08/19 02:47:50;;;;;;;9.10;4.25;;;;;;;25.39;47.21;99692.13;5071981;28;20032;-43
2023/08/19 02:50:15;;;;;;;6.43;4.10;;;;;;;25.18;47.98;99684.31;5071997;28;20043;-42
2023/08/19 02:52:41;;;;;;;7.70;4.28;;;;;;;25.24;48.01;99688.56;5053873;28;20368;-45
2023/08/19 02:55:06;;;;;;;6.13;4.38;;;;;;;25.31;47.70;99688.19;5072011;28;20461;-45
2023/08/19 02:57:32;;;;;;;8.15;4.30;;;;;;;25.20;47.88;99690.25;5071601;28;20082;-47
2023/08/19 02:59:57;;;;;;;8.20;4.18;;;;;;;25.32;47.55;99681.63;5071823;28;20035;-47
2023/08/19 03:02:23;;;;;;;9.23;4.32;;;;;;;24.79;48.87;99680.16;5071592;28;20056;-45
2023/08/19 03:04:48;;;;;;;6.85;4.90;;;;;;;25.02;48.34;99672.09;5071670;28;20157;-44
2023/08/19 03:07:13;;;;;;;10.25;6.00;;;;;;;24.91;48.23;99671.50;5071295;28;20052;-46
2023/08/19 03:09:43;;;;;;;10.18;5.47;;;;;;;24.87;48.64;99675.94;5071622;28;20438;-43
2023/08/19 03:12:08;;;;;;;;;;;;;;;25.16;48.25;99673.72;5072144;28;20121;-43
2023/08/19 03:14:33;;;;;;;8.65;5.28;;;;;;;24.82;48.86;99668.66;5071512;28;19970;-44
2023/08/19 03:16:59;;;;;;;7.50;4.60;;;;;;;24.76;48.85;99672.59;5071353;28;20035;-45
2023/08/19 03:19:26;;;;;;;7.47;4.60;;;;;;;24.74;49.24;99674.81;5071247;28;20062;-42
2023/08/19 03:21:51;;;;;;;7.22;5.00;;;;;;;24.57;49.60;99675.38;5071076;28;20025;-45
2023/08/19 03:24:16;;;;;;;8.48;4.70;;;;;;;24.69;49.34;99664.81;5071303;28;20107;-44
2023/08/19 03:26:42;;;;;;;7.65;4.60;;;;;;;24.83;49.18;99669.47;5071167;28;20024;-41
2023/08/19 03:29:07;;;;;;;9.18;4.43;;;;;;;24.95;49.10;99678.75;5071103;28;20412;-42
2023/08/19 03:31:32;;;;;;;6.25;4.50;;;;;;;25.02;48.78;99686.53;5070938;28;20024;-44
2023/08/19 03:33:58;;;;;;;9.10;4.43;;;;;;;25.01;48.75;99690.34;5069908;28;20033;-42
2023/08/19 03:36:23;;;;;;;5.60;3.95;;;;;;;24.87;49.16;99686.81;5071242;28;20070;-45
2023/08/19 03:38:49;;;;;;;7.07;4.55;;;;;;;24.97;48.91;99698.31;5071151;28;20056;-46
2023/08/19 03:41:14;;;;;;;10.05;4.70;;;;;;;24.66;49.65;99702.69;5070904;28;20345;-44
2023/08/19 03:43:40;;;;;;;7.65;4.28;;;;;;;24.20;51.11;99707.72;5070974;28;20040;-45
2023/08/19 03:46:05;;;;;;;5.30;4.40;;;;;;;24.46;50.40;99710.03;5070876;28;20112;-42
2023/08/19 03:48:30;;;;;;;8.25;4.60;;;;;;;24.44;50.26;99704.09;5071063;28;20016;-43
2023/08/19 03:50:56;;;;;;;9.02;4.60;;;;;;;24.05;51.55;99713.41;5070654;28;20441;-43
2023/08/19 03:53:21;;;;;;;12.13;4.80;;;;;;;24.26;50.75;99708.47;5070859;28;20035;-46
2023/08/19 03:55:48;;;;;;;8.45;4.60;;;;;;;24.40;50.37;99712.03;5070893;28;20025;-44
2023/08/19 03:58:14;;;;;;;8.05;5.00;;;;;;;24.26;50.78;99708.47;5070710;28;20069;-46
2023/08/19 04:00:39;;;;;;;9.25;4.80;;;;;;;24.13;51.27;99699.13;5070823;28;20024;-45
2023/08/19 04:03:05;;;;;;;11.82;5.13;;;;;;;23.90;51.86;99698.13;5070658;28;20020;-41
2023/08/19 04:05:30;;;;;;;8.38;4.82;;;;;;;24.30;51.06;99700.53;5070597;28;20021;-45
2023/08/19 04:07:56;;;;;;;7.72;4.90;;;;;;;24.47;50.67;99697.28;5070930;28;20036;-42
2023/08/19 04:10:22;;;;;;;8.80;5.30;;;;;;;24.49;50.50;99692.34;5070733;28;20036;-45
2023/08/19 04:12:47;;;;;;;8.35;5.30;;;;;;;24.64;50.25;99694.03;5070554;28;20032;-43
2023/08/19 04:15:13;;;;;;;8.80;4.90;;;;;;;24.36;50.97;99685.75;5070661;28;20027;-43
2023/08/19 04:17:38;;;;;;;10.80;5.07;;;;;;;24.31;51.33;99691.25;5070447;28;20028;-44
2023/08/19 04:20:10;;;;;;;6.43;4.75;;;;;;;24.35;51.47;99690.38;5070455;28;20021;-43
2023/08/19 04:22:37;;;;;;;8.70;6.10;;;;;;;24.52;50.89;99675.44;5070489;28;20035;-44
2023/08/19 04:25:02;;;;;;;6.65;5.32;;;;;;;24.75;50.27;99669.06;5070818;28;20345;-45
2023/08/19 04:27:30;;;;;;;7.95;5.05;;;;;;;24.83;50.33;99681.16;5070565;28;20078;-44
2023/08/19 04:29:55;;;;;;;6.82;5.00;;;;;;;24.76;50.53;99678.03;5070159;28;20032;-43
2023/08/19 04:32:20;;;;;;;8.18;4.97;;;;;;;24.03;52.30;99672.13;5070156;28;20028;-44
2023/08/19 04:34:46;;;;;;;7.30;4.80;;;;;;;23.76;52.89;99678.16;5070316;28;20066;-46
2023/08/19 04:37:11;;;;;;;7.22;4.50;;;;;;;23.89;52.16;99680.19;5070546;28;20070;-44
2023/08/19 04:39:37;;;;;;;8.43;5.18;;;;;;;23.87;52.24;99692.44;5069901;28;20049;-44
2023/08/19 04:42:03;;;;;;;7.93;5.15;;;;;;;23.95;52.18;99694.50;5070255;28;20067;-45
2023/08/19 04:44:29;;;;;;;10.65;5.55;;;;;;;23.98;51.91;99702.88;5071637;28;20028;-44
2023/08/19 04:46:55;;;;;;;9.40;5.15;;;;;;;24.06;51.69;99706.03;5074421;28;20027;-45
2023/08/19 04:49:20;;;;;;;12.30;5.43;;;;;;;24.19;51.27;99708.81;5074287;28;20012;-42
2023/08/19 04:51:46;;;;;;;10.25;5.40;;;;;;;24.17;51.45;99716.47;5074525;28;20400;-41
2023/08/19 04:54:11;;;;;;;8.13;4.60;;;;;;;24.25;51.03;99725.88;5074316;28;20056;-44
2023/08/19 04:56:37;;;;;;;8.55;4.65;;;;;;;24.40;50.72;99733.00;5074396;28;20035;-42
2023/08/19 04:59:02;;;;;;;10.30;5.20;;;;;;;24.38;50.87;99733.28;5074338;28;20051;-42
2023/08/19 05:01:28;;;;;;;10.18;5.15;;;;;;;24.61;50.17;99744.38;5074305;28;20017;-46
2023/08/19 05:03:54;;;;;;;8.73;5.20;;;;;;;24.59;49.96;99738.44;5073937;28;20078;-44
2023/08/19 05:06:20;;;;;;;13.70;7.30;;;;;;;24.75;49.76;99744.41;5074293;28;20028;-45
2023/08/19 05:08:45;;;;;;;10.38;6.80;;;;;;;24.73;49.55;99746.63;5074248;28;20025;-43
2023/08/19 05:11:11;;;;;;;11.02;6.95;;;;;;;24.84;49.18;99747.28;5074177;28;20029;-43
2023/08/19 05:13:36;;;;;;;11.25;7.45;;;;;;;24.86;49.29;99753.22;5073802;28;20030;-42
2023/08/19 05:16:02;;;;;;;15.38;8.93;;;;;;;24.91;48.88;99744.97;5073912;28;20051;-42
2023/08/19 05:18:28;;;;;;;14.18;9.32;;;;;;;25.15;48.63;99750.25;5074034;28;20024;-44
2023/08/19 05:20:53;;;;;;;18.02;11.40;;;;;;;25.34;48.24;99761.09;5073868;28;20477;-43
2023/08/19 05:23:19;;;;;;;20.40;13.38;;;;;;;25.56;47.91;99746.78;5073981;28;20032;-42
2023/08/19 05:25:44;;;;;;;19.90;14.15;;;;;;;25.57;48.01;99742.97;5073589;28;20032;-43
2023/08/19 05:28:11;;;;;;;20.27;13.60;;;;;;;26.13;46.65;99733.59;5073542;28;20035;-43
2023/08/19 05:30:36;;;;;;;21.25;13.95;;;;;;;26.41;46.02;99736.25;5073369;28;20503;-43
2023/08/19 05:33:02;;;;;;;18.92;13.80;;;;;;;26.58;45.61;99732.84;5072787;28;20102;-41
2023/08/19 05:35:27;;;;;;;21.52;13.50;;;;;;;26.93;44.74;99741.25;5072814;28;20112;-43
2023/08/19 05:37:53;;;;;;;23.17;14.40;;;;;;;26.88;44.75;99742.22;5072428;28;20503;-42
2023/08/19 05:40:18;;;;;;;21.92;15.38;;;;;;;26.63;45.15;99746.38;5072378;28;20029;-43
2023/08/19 05:42:44;;;;;;;24.75;14.52;;;;;;;26.54;45.46;99761.88;5072316;28;20062;-43
2023/08/19 05:45:10;;;;;;;21.10;13.63;;;;;;;26.30;46.50;99759.41;5072225;28;20036;-42
2023/08/19 05:47:35;;;;;;;21.35;13.88;;;;;;;26.18;46.24;99761.84;5072414;28;20029;-46
2023/08/19 05:50:00;;;;;;;20.80;13.38;;;;;;;26.06;46.90;99756.94;5072284;28;20028;-41
2023/08/19 05:52:26;;;;;;;18.55;12.50;;;;;;;25.97;47.29;99750.59;5072653;28;20033;-43
2023/08/19 05:54:51;;;;;;;19.83;12.35;;;;;;;26.14;47.25;99762.50;5072573;28;20032;-45
2023/08/19 05:57:17;;;;;;;19.65;11.85;;;;;;;26.18;47.65;99764.59;5071616;28;20109;-43
2023/08/19 05:59:42;;;;;;;18.50;10.68;;;;;;;26.31;46.99;99759.13;5072663;28;20025;-42
2023/08/19 06:02:08;;;;;;;13.40;10.05;;;;;;;26.11;46.87;99754.91;5072663;28;20430;-43
2023/08/19 06:04:33;;;;;;;13.85;8.40;;;;;;;26.12;46.49;99751.09;5072948;28;20514;-44
2023/08/19 06:06:59;;;;;;;14.95;7.45;;;;;;;25.85;46.89;99760.06;5072137;28;20492;-43
2023/08/19 06:09:24;;;;;;;11.50;7.10;;;;;;;26.03;47.06;99752.91;5072053;28;20487;-43
2023/08/19 06:11:52;;;;;;;10.35;6.47;;;;;;;26.03;46.75;99750.19;5072027;28;20078;-40
2023/08/19 06:14:19;;;;;;;9.85;6.57;;;;;;;26.16;46.46;99745.00;5072087;28;20060;-44
2023/08/19 06:16:45;;;;;;;12.50;6.03;;;;;;;26.53;45.64;99732.94;5071938;28;20457;-44
2023/08/19 06:19:12;;;;;;;11.23;6.20;;;;;;;27.38;44.36;99735.72;5072016;28;20070;-42
2023/08/19 06:21:37;;;;;;;9.18;5.82;;;;;;;27.81;43.03;99729.53;5071895;28;20036;-43
2023/08/19 06:24:03;;;;;;;7.30;5.43;;;;;;;28.17;42.15;99733.16;5071879;28;20408;-44
2023/08/19 06:26:29;;;;;;;10.52;5.30;;;;;;;28.73;41.42;99723.16;5071807;28;20100;-45
2023/08/19 06:28:55;;;;;;;9.05;5.03;;;;;;;29.22;40.68;99731.88;5071592;28;20099;-42
2023/08/19 06:31:21;;;;;;;8.90;5.10;;;;;;;29.70;39.85;99738.09;5071762;28;20029;-43
2023/08/19 06:33:46;;;;;;;10.25;5.07;;;;;;;30.13;38.43;99727.97;5071481;28;20017;-43
2023/08/19 06:36:16;;;;;;;8.25;4.90;;;;;;;29.91;38.67;99718.97;5071699;28;20021;-42
2023/08/19 06:38:48;;;;;;;9.77;4.55;;;;;;;29.66;38.59;99725.38;5071191;28;20568;-42
2023/08/19 06:41:16;;;;;;;6.75;4.35;;;;;;;29.40;39.73;99724.41;5071496;28;20034;-42
2023/08/19 06:43:43;;;;;;;9.10;4.60;;;;;;;29.12;40.15;99728.69;5071522;28;20025;-43
2023/08/19 06:46:09;;;;;;;7.43;4.50;;;;;;;28.95;40.48;99721.31;5071265;28;20035;-42
2023/08/19 06:48:35;;;;;;;5.93;4.45;;;;;;;29.02;40.20;99729.84;5071560;28;20025;-43
2023/08/19 06:51:03;;;;;;;7.40;4.20;;;;;;;29.34;39.57;99720.25;5071489;28;20286;-44
2023/08/19 06:53:28;;;;;;;6.07;4.50;;;;;;;29.79;39.07;99727.88;5071441;28;20035;-44
2023/08/19 06:56:16;;;;;;;6.25;4.28;;;;;;;30.14;38.42;99724.91;5071172;28;20024;-43
2023/08/19 06:58:51;;;;;;;8.05;4.72;;;;;;;30.74;37.29;99722.75;5071070;28;20059;-44
2023/08/19 07:01:22;;;;;;;11.18;4.65;;;;;;;31.26;36.63;99731.56;5070894;28;20056;-42
2023/08/19 07:03:50;;;;;;;7.45;4.50;;;;;;;31.21;36.14;99727.09;5070752;28;20020;-45
2023/08/19 07:06:20;;;;;;;6.07;4.30;;;;;;;31.01;36.72;99719.75;5070868;28;20020;-41
2023/08/19 07:08:46;;;;;;;6.35;4.15;;;;;;;31.11;36.09;99714.63;5070420;28;20360;-42
2023/08/19 07:11:12;;;;;;;7.00;4.50;;;;;;;31.14;36.71;99726.88;5070882;28;20521;-45
2023/08/19 07:13:38;;;;;;;6.18;4.10;;;;;;;31.20;36.60;99724.69;5070678;28;20036;-44
2023/08/19 07:16:05;;;;;;;8.63;4.18;;;;;;;31.11;36.38;99717.38;5070908;28;20029;-44
2023/08/19 07:18:35;;;;;;;8.40;4.38;;;;;;;31.05;36.21;99721.47;5070821;28;20165;-44
2023/08/19 07:21:02;;;;;;;8.15;4.35;;;;;;;31.10;37.07;99714.97;5070791;28;20020;-43
2023/08/19 07:23:28;;;;;;;10.48;4.68;;;;;;;31.45;36.10;99722.75;5070471;28;20025;-42
2023/08/19 07:25:54;;;;;;;13.07;4.57;;;;;;;31.89;35.23;99718.25;5070648;28;20044;-43
2023/08/19 07:28:23;;;;;;;8.40;4.00;;;;;;;31.80;34.96;99719.53;5070362;28;20180;-44
2023/08/19 07:30:49;;;;;;;9.23;4.05;;;;;;;32.28;34.19;99723.31;5070138;28;20480;-44
2023/08/19 07:33:16;;;;;;;11.38;3.90;;;;;;;32.95;33.38;99726.31;5070363;28;20052;-47
2023/08/19 07:35:42;;;;;;;8.48;3.80;;;;;;;33.45;32.47;99730.34;5070270;28;20577;-45
2023/08/19 07:38:08;;;;;;;6.15;3.70;;;;;;;33.65;31.75;99733.19;5069892;28;20060;-46
2023/08/19 07:40:33;;;;;;;10.82;3.90;;;;;;;33.85;31.53;99732.06;5070413;28;20027;-42
2023/08/19 07:42:59;;;;;;;6.05;3.50;;;;;;;34.36;30.91;99746.91;5070275;28;20028;-43
2023/08/19 07:45:24;;;;;;;7.68;3.60;;;;;;;33.91;31.19;99751.06;5070407;28;20055;-47
2023/08/19 07:47:50;;;;;;;6.03;3.33;;;;;;;34.47;30.37;99737.69;5070079;28;20033;-44
2023/08/19 07:50:15;;;;;;;5.10;3.47;;;;;;;34.52;31.00;99741.31;5070019;28;20028;-42
2023/08/19 07:52:41;;;;;;;5.43;3.40;;;;;;;34.74;30.30;99745.31;5069992;28;20028;-41
2023/08/19 07:55:07;;;;;;;7.00;3.20;;;;;;;35.14;29.04;99738.50;5069920;28;20024;-43
2023/08/19 07:57:32;;;;;;;6.20;3.50;;;;;;;34.91;30.37;99744.81;5070084;28;20033;-41
2023/08/19 07:59:58;;;;;;;8.95;3.53;;;;;;;35.42;29.50;99740.97;5069635;28;20032;-44
2023/08/19 08:02:23;;;;;;;6.10;3.30;;;;;;;35.46;29.30;99733.50;5070047;28;20452;-43
2023/08/19 08:04:49;;;;;;;6.28;3.47;;;;;;;35.27;29.30;99731.63;5069611;28;20501;-44
2023/08/19 08:07:14;;;;;;;6.95;3.00;;;;;;;34.87;29.52;99724.63;5069620;28;20121;-42
2023/08/19 08:09:41;;;;;;;5.90;3.70;;;;;;;34.38;30.09;99728.81;5069889;28;20127;-42
2023/08/19 08:12:07;;;;;;;6.68;3.15;;;;;;;34.50;30.17;99732.59;5069656;28;20168;-43
2023/08/19 08:14:32;;;;;;;5.15;3.47;;;;;;;34.19;30.44;99732.38;5069672;28;20028;-42
2023/08/19 08:16:58;;;;;;;3.90;3.33;;;;;;;33.91;31.12;99735.34;5051604;28;20252;-42
2023/08/19 08:19:25;;;;;;;8.85;3.15;;;;;;;34.16;30.47;99726.81;5069134;28;20477;-42
2023/08/19 08:21:52;;;;;;;5.18;3.30;;;;;;;34.13;31.04;99733.81;5069655;28;20043;-45
2023/08/19 08:24:17;;;;;;;5.45;3.28;;;;;;;33.98;30.91;99743.75;5069839;28;20097;-46
2023/08/19 08:26:43;;;;;;;4.03;3.20;;;;;;;33.82;30.96;99738.28;5070049;28;20461;-43
2023/08/19 08:29:08;;;;;;;4.63;3.10;;;;;;;33.65;30.60;99739.47;5069736;28;20012;-45
2023/08/19 08:31:34;;;;;;;5.18;3.10;;;;;;;33.58;31.31;99736.53;5069592;28;20388;-42
2023/08/19 08:33:59;;;;;;;4.97;3.15;;;;;;;33.27;31.39;99724.38;5069812;28;20221;-42
2023/08/19 08:36:24;;;;;;;6.57;3.17;;;;;;;33.12;31.24;99727.94;5069579;28;20032;-43
2023/08/19 08:38:50;;;;;;;5.15;3.30;;;;;;;33.17;31.00;99733.22;5069310;28;20591;-42
2023/08/19 08:41:15;;;;;;;4.32;3.08;;;;;;;32.99;31.18;99729.16;5069611;28;20442;-44
2023/08/19 08:43:44;;;;;;;7.78;3.20;;;;;;;33.04;31.75;99734.41;5069342;28;20404;-45
2023/08/19 08:46:10;;;;;;;7.60;3.60;;;;;;;32.79;32.24;99731.81;5069306;28;20032;-43
2023/08/19 08:48:36;;;;;;;6.07;3.47;;;;;;;32.73;32.12;99733.25;5069192;28;20077;-43
2023/08/19 08:51:02;;;;;;;4.57;3.30;;;;;;;32.84;32.13;99728.00;5069228;28;20030;-44
2023/08/19 08:53:29;;;;;;;4.43;3.53;;;;;;;32.81;31.84;99714.94;5069414;28;20024;-43
2023/08/19 08:55:56;;;;;;;7.72;3.72;;;;;;;32.96;31.55;99722.41;5069195;28;20485;-44
2023/08/19 08:58:21;;;;;;;6.25;3.47;;;;;;;32.95;31.90;99729.06;5068916;28;20029;-43
2023/08/19 09:00:48;;;;;;;7.30;3.72;;;;;;;33.03;31.55;99710.75;5069205;28;20046;-44
2023/08/19 09:03:18;;;;;;;6.18;3.40;;;;;;;33.06;31.41;99718.31;5069030;28;20036;-45
2023/08/19 09:05:47;;;;;;;6.35;3.90;;;;;;;33.38;31.54;99713.63;5069326;28;20032;-48
2023/08/19 09:08:15;;;;;;;5.35;3.92;;;;;;;33.42;31.59;99713.72;5068678;28;20027;-44
2023/08/19 09:10:43;;;;;;;;;;;;;;;33.76;30.74;99706.63;5068804;28;20495;-43
2023/08/19 09:13:12;;;;;;;5.90;3.60;;;;;;;34.26;29.97;99713.22;5068929;28;19915;-43
2023/08/19 09:15:38;;;;;;;6.85;3.45;;;;;;;34.26;29.79;99702.16;5068910;28;20024;-43
2023/08/19 09:18:05;;;;;;;5.55;2.90;;;;;;;34.65;28.83;99693.00;5068618;28;20026;-43
2023/08/19 09:20:32;;;;;;;4.77;3.00;;;;;;;34.77;28.53;99690.09;5069014;28;20032;-44
2023/08/19 09:23:08;;;;;;;3.30;2.60;;;;;;;34.52;28.36;99695.16;5068592;28;20067;-46
2023/08/19 09:25:33;;;;;;;4.30;2.60;;;;;;;34.80;26.59;99692.13;5069162;28;20085;-44
2023/08/19 09:27:59;;;;;;;4.13;2.60;;;;;;;34.92;27.51;99693.91;5069013;28;20033;-45
2023/08/19 09:30:32;;;;;;;5.80;2.70;;;;;;;35.18;26.70;99689.59;5069763;28;20050;-45
2023/08/19 09:33:00;;;;;;;5.25;2.70;;;;;;;35.36;27.37;99692.66;5072307;28;20456;-43
2023/08/19 09:35:33;;;;;;;;;;;;;;;35.30;26.59;99685.84;5073241;28;20055;-43
2023/08/19 09:37:59;;;;;;;4.50;2.90;;;;;;;34.99;26.85;99691.25;5072407;28;19913;-44
2023/08/19 09:40:25;;;;;;;4.72;2.70;;;;;;;35.05;27.47;99694.50;5072761;28;20408;-43
2023/08/19 09:42:50;;;;;;;3.58;2.72;;;;;;;35.29;27.30;99687.81;5072530;28;20029;-41
2023/08/19 09:45:20;;;;;;;3.67;2.83;;;;;;;35.38;26.83;99677.28;5072492;28;20033;-43
2023/08/19 09:47:50;;;;;;;3.50;2.80;;;;;;;35.56;26.81;99673.97;5072168;28;20024;-42
2023/08/19 09:50:17;;;;;;;6.28;2.70;;;;;;;35.50;27.08;99679.03;5071987;28;20028;-43
2023/08/19 09:52:53;;;;;;;3.15;2.80;;;;;;;35.63;26.12;99674.06;5072407;28;20032;-43
2023/08/19 09:55:25;;;;;;;3.38;2.90;;;;;;;35.40;27.03;99680.47;5072176;28;20078;-44
2023/08/19 09:57:50;;;;;;;3.75;2.78;;;;;;;35.46;27.10;99680.16;5072002;28;20458;-43
2023/08/19 10:00:16;;;;;;;3.75;2.83;;;;;;;35.53;26.22;99669.16;5072221;28;20036;-45
2023/08/19 10:02:42;;;;;;;4.88;2.70;;;;;;;35.28;26.33;99671.59;5072045;28;20024;-41
2023/08/19 10:05:07;;;;;;;3.50;2.90;;;;;;;35.52;25.80;99670.34;5072075;28;20036;-42
2023/08/19 10:07:33;;;;;;;6.30;2.95;;;;;;;35.59;27.06;99673.22;5072147;28;20155;-46
2023/08/19 10:10:03;;;;;;;3.67;2.80;;;;;;;35.80;25.95;99668.00;5071924;28;20416;-45
2023/08/19 10:12:34;;;;;;;5.07;2.72;;;;;;;35.65;26.23;99671.72;5072099;28;20373;-45
2023/08/19 10:15:00;;;;;;;5.07;2.80;;;;;;;35.69;26.41;99657.97;5072013;28;20111;-43
2023/08/19 10:17:28;;;;;;;8.90;3.10;;;;;;;35.82;26.05;99667.63;5072018;28;20028;-43
2023/08/19 10:20:05;;;;;;;5.72;2.90;;;;;;;35.88;25.34;99670.84;5071894;28;20017;-43
2023/08/19 10:22:32;;;;;;;4.75;2.45;;;;;;;34.86;25.77;99664.97;5072006;28;20047;-43
2023/08/19 10:24:59;;;;;;;3.67;2.47;;;;;;;33.92;26.92;99681.72;5071838;28;20028;-45
2023/08/19 10:27:24;;;;;;;6.38;2.80;;;;;;;33.55;27.24;99671.06;5071877;28;20107;-40
2023/08/19 10:29:57;;;;;;;3.38;2.67;;;;;;;33.66;27.42;99661.09;5071659;28;20108;-43
2023/08/19 10:32:30;;;;;;;3.33;2.80;;;;;;;34.02;27.30;99661.81;5071873;28;20142;-46
2023/08/19 10:35:12;;;;;;;7.13;3.08;;;;;;;34.14;27.14;99663.66;5071201;28;20107;-44
2023/08/19 10:37:48;;;;;;;4.00;3.10;;;;;;;34.35;27.01;99654.19;5071687;28;20121;-42
2023/08/19 10:40:34;;;;;;;3.70;3.00;;;;;;;33.95;27.43;99653.41;5071692;28;20033;-46
2023/08/19 10:43:00;;;;;;;3.65;2.97;;;;;;;33.82;27.82;99647.22;5070748;28;20040;-44
2023/08/19 10:45:33;;;;;;;5.63;3.08;;;;;;;33.24;28.16;99660.91;5071193;28;20029;-43
2023/08/19 10:47:58;;;;;;;5.30;3.28;;;;;;;33.49;27.91;99650.41;5070966;28;20472;-44
2023/08/19 10:50:27;;;;;;;14.32;3.10;;;;;;;33.70;27.84;99658.41;5070945;28;20017;-43
2023/08/19 10:52:59;;;;;;;5.25;3.03;;;;;;;33.61;27.62;99657.78;5071060;28;20032;-43
2023/08/19 10:55:25;;;;;;;3.80;2.90;;;;;;;33.19;28.03;99656.47;5070901;28;20103;-44
2023/08/19 10:57:51;;;;;;;8.50;2.87;;;;;;;33.31;28.72;99647.28;5070771;28;20116;-45
2023/08/19 11:00:22;;;;;;;4.05;2.85;;;;;;;33.91;27.39;99646.22;5070836;28;20624;-46
2023/08/19 11:02:48;;;;;;;5.88;3.10;;;;;;;33.77;27.94;99649.47;5071027;28;20097;-45
2023/08/19 11:05:13;;;;;;;3.42;2.67;;;;;;;33.87;27.89;99635.91;5070750;28;20024;-45
2023/08/19 11:07:41;;;;;;;3.90;2.90;;;;;;;34.37;27.31;99640.84;5070681;28;20450;-42
2023/08/19 11:10:07;;;;;;;4.28;2.88;;;;;;;34.79;27.25;99638.03;5070882;28;20020;-44
2023/08/19 11:12:33;;;;;;;5.57;3.03;;;;;;;34.49;26.46;99642.63;5070567;28;20156;-43
2023/08/19 11:15:00;;;;;;;4.22;2.90;;;;;;;34.21;26.69;99633.41;5070774;28;20247;-43
2023/08/19 11:17:30;;;;;;;3.90;2.83;;;;;;;34.71;26.17;99638.28;5070834;28;20414;-43
2023/08/19 11:19:58;;;;;;;5.93;2.85;;;;;;;35.19;26.25;99636.72;5070521;28;20083;-43
2023/08/19 11:22:23;;;;;;;6.90;3.23;;;;;;;35.20;25.98;99632.75;5070659;28;20028;-47
2023/08/19 11:24:51;;;;;;;4.20;3.13;;;;;;;35.12;26.08;99633.81;5070502;28;20488;-44
2023/08/19 11:27:17;;;;;;;4.65;2.90;;;;;;;34.97;26.38;99624.50;5070489;28;20028;-44
2023/08/19 11:29:47;;;;;;;6.97;3.00;;;;;;;34.33;26.74;99629.72;5070391;28;20016;-44